KFEP/FEP METAR and TAF weather

Enter ICAO airport designator
Station Type Date Time Source
KFEP METAR 2022/11/26 08:55 UTC NOAA

KFEP 260855Z AUTO 23010KT 10SM CLR 02/M01 A3010 RMK AO2 T00151007


Station Type Date Time Source
KFEP Decoded METAR 2022/11/26 08:55 UTC NOAA

Freeport, Albertus Airport, IL, United States (KFEP) 42-14-47N 089-34-56W
Nov 26, 2022 - 03:55 AM EST / 2022.11.26 0855 UTC
Wind: from the SW (230 degrees) at 12 MPH (10 KT):0
Visibility: 10 mile(s):0
Sky conditions: clear
Temperature: 34.7 F (1.5 C)
Windchill: 26 F (-3 C):1
Dew Point: 30.7 F (-0.7 C)
Relative Humidity: 85%
Pressure (altimeter): 30.1 in. Hg (1019 hPa)
ob: KFEP 260855Z AUTO 23010KT 10SM CLR 02/M01 A3010 RMK AO2 T00151007
cycle: 9

Station Type Date Time Source
KFEP TAF UTC NOAA

Error!

Example: see airport list